Flight Track Log - Related Links

Times and Time Zones

All times are in EDT time to prevent confusion due to time zone crossing. See the UAL4476 flight status page for this flight to view local times or setup timezone preferences in your user account.

Time Position Orientation Groundspeed Altitude Reporting Facility
EDT Latitude Longitude Course Direction KTS MPH feet Rate Location/Type
Mon 08:55:42 AM 41.4236 -81.8347 24° Northeast 175 201 1,800  Level Cleveland Center
Mon 08:56:24 AM 41.4636 -81.8106 24° Northeast 230 265 2,700 1,806 Climbing Cleveland Center
Mon 08:57:25 AM 41.5142 -81.7617 36° Northeast 268 308 4,900 2,430 Climbing Cleveland Center
Mon 08:58:25 AM 41.5422 -81.6650 69° East 247 284 7,600 2,500 Climbing Cleveland Center
Mon 08:59:25 AM 41.5681 -81.5711 70° East 255 293 9,900 1,750 Climbing Cleveland Center
Mon 09:00:25 AM 41.5939 -81.4689 71° East 273 314 11,100 1,150 Climbing Cleveland Center
Mon 09:01:25 AM 41.6239 -81.3525 71° East 309 356 12,200 1,250 Climbing Cleveland Center
Mon 09:02:25 AM 41.6581 -81.2278 70° East 338 389 13,600 1,400 Climbing Cleveland Center
Mon 09:03:25 AM 41.6900 -81.1031 71° East 348 400 15,000 1,400 Climbing Cleveland Center
Mon 09:04:25 AM 41.7239 -80.9753 70° East 348 400 16,400 1,300 Climbing Cleveland Center
Mon 09:05:25 AM 41.7533 -80.8642 70° East 348 400 17,600 1,050 Climbing Cleveland Center
Mon 09:06:25 AM 41.7847 -80.7364 72° East 348 400 18,500 1,150 Climbing Cleveland Center
Mon 09:07:25 AM 41.8183 -80.6083 71° East 353 406 19,900 1,400 Climbing Cleveland Center
Mon 09:08:25 AM 41.8517 -80.4772 71° East 368 423 21,300 1,350 Climbing Cleveland Center
Mon 09:09:25 AM 41.8847 -80.3461 71° East 368 423 22,600 1,150 Climbing Cleveland Center
Mon 09:10:25 AM 41.9197 -80.2064 71° East 376 433 23,600 1,000 Climbing Cleveland Center
Mon 09:11:25 AM 41.9589 -80.0556 71° East 384 442 24,600 950 Climbing Cleveland Center
Mon 09:12:25 AM 41.9914 -79.9294 71° East 390 449 25,500 950 Climbing Cleveland Center
Mon 09:13:25 AM 42.0281 -79.7836 71° East 395 455 26,500 750 Climbing Cleveland Center
Mon 09:14:25 AM 42.0625 -79.6406 72° East 395 455 27,000 250 Climbing Cleveland Center
Mon 09:15:25 AM 42.1008 -79.4889 71° East 406 467 27,000  Level Cleveland Center
Mon 09:16:25 AM 42.1386 -79.3342 72° East 417 480 27,000 200 Level Cleveland Center
Mon 09:17:25 AM 42.1764 -79.1739 72° East 430 495 27,400 950 Climbing Cleveland Center
Mon 09:18:25 AM 42.2036 -79.0192 77° East 435 501 28,900 1,450 Climbing Cleveland Center
Mon 09:19:25 AM 42.2244 -78.8644 80° East 427 491 30,300 1,050 Climbing Cleveland Center
Mon 09:20:25 AM 42.2431 -78.7153 80° East 410 472 31,000 350 Climbing Cleveland Center
Mon 09:21:25 AM 42.2611 -78.5547 81° East 416 479 31,000  Level Cleveland Center
Mon 09:22:25 AM 42.2811 -78.3942 80° East 429 494 31,000  Level Cleveland Center
Mon 09:23:25 AM 42.3006 -78.2278 81° East 434 499 31,000  Level Cleveland Center
Mon 09:24:25 AM 42.3239 -78.0444 80° East 448 516 31,000  Level Cleveland Center
Mon 09:25:25 AM 42.3450 -77.8750 80° East 448 516 31,000  Level Cleveland Center
Mon 09:26:25 AM 42.3639 -77.7083 81° East 448 516 31,000  Level Cleveland Center
Mon 09:27:25 AM 42.3825 -77.5389 81° East 448 516 31,000  Level Cleveland Center
Mon 09:28:25 AM 42.4011 -77.3747 81° East 448 516 31,000  Level Cleveland Center
Mon 09:30:51 AM 42.4450 -76.9819 81° East 439 505 31,000  Level Boston Center
Mon 09:31:51 AM 42.4644 -76.8089 81° East 439 505 31,000  Level Boston Center
Mon 09:32:51 AM 42.4811 -76.6439 82° East 439 505 31,000  Level Boston Center
Mon 09:33:51 AM 42.4964 -76.5097 81° East 445 512 31,000  Level Boston Center
Mon 09:34:51 AM 42.5181 -76.3053 82° East 445 512 31,000  Level Boston Center
Mon 09:35:51 AM 42.5342 -76.1372 83° East 445 512 31,000  Level Boston Center
Mon 09:36:51 AM 42.5486 -76.0056 81° East 445 512 31,000  Level Boston Center
Mon 09:37:51 AM 42.5675 -75.8008 83° East 445 512 31,000  Level Boston Center
Mon 09:39:00 AM 42.5741 -75.6351 83° East  Level FlightAware Approximate
Mon 09:39:51 AM 42.5997 -75.4639 83° East 445 512 31,000  Level Boston Center
Mon 09:40:51 AM 42.6169 -75.2897 82° East 445 512 31,000  Level Boston Center
Mon 09:41:51 AM 42.6333 -75.1242 82° East 451 519 31,000  Level Boston Center
Mon 09:42:51 AM 42.6478 -74.9553 83° East 451 519 31,000  Level Boston Center
Mon 09:43:51 AM 42.6639 -74.7836 83° East 451 519 31,000  Level Boston Center
Mon 09:44:51 AM 42.6797 -74.6092 83° East 451 519 31,000  Level Boston Center
Mon 09:45:51 AM 42.6892 -74.4400 86° East 456 525 31,000  Level Boston Center
Mon 09:47:03 AM 42.6794 -74.2675 94° East 451 519 31,000  Level Boston Center
Mon 09:48:03 AM 42.6681 -74.0608 94° East 456 525 31,000  Level Boston Center
Mon 09:49:03 AM 42.6581 -73.8856 94° East 461 531 31,000  Level Boston Center
Mon 09:50:03 AM 42.6497 -73.6933 93° East 460 529 31,000  Level Boston Center
Mon 09:51:03 AM 42.6392 -73.5153 95° East 460 529 31,000  Level Boston Center
Mon 09:52:03 AM 42.6303 -73.3403 94° East 465 535 31,000 -200 Level Boston Center
Mon 09:53:03 AM 42.6208 -73.1933 95° East 465 535 30,600 -700 Descending Boston Center
Mon 09:54:03 AM 42.6117 -73.0014 94° East 465 535 29,600 -1,273 Descending Boston Center
Mon 09:55:15 AM 42.5978 -72.8208 96° East 478 550 27,800 -2,455 Descending Boston Center
Mon 09:56:15 AM 42.5836 -72.6064 95° East 474 545 24,200 -3,300 Descending Boston Center
Mon 09:57:15 AM 42.5733 -72.4400 95° East 458 527 21,200 -2,818 Descending Boston Center
Mon 09:58:27 AM 42.5628 -72.2878 95° East 433 498 18,000 -2,682 Descending Boston Center
Mon 09:59:27 AM 42.5478 -72.0933 96° East 393 452 15,300 -2,300 Descending Boston Center
Mon 10:00:27 AM 42.5369 -71.9667 97° East 381 438 13,400 -1,750 Descending Boston Center
Mon 10:01:27 AM 42.5239 -71.8231 97° East 362 417 11,800 -1,450 Descending Boston Center
Mon 10:02:27 AM 42.5147 -71.7133 96° East 329 379 10,500 -1,350 Descending Boston Center
Mon 10:03:27 AM 42.5058 -71.6036 96° East 286 329 9,100 -1,105 Descending Boston Center
Mon 10:03:43 AM 42.5000 -71.5667 102° East 260 299 9,100 -73 Level KA90
Mon 10:04:49 AM 42.4833 -71.4667 103° East 260 299 9,000 -50 Descending KA90
Mon 10:05:43 AM 42.4833 -71.3833 90° East 263 303 9,000 -158 Level KA90
Mon 10:06:43 AM 42.4667 -71.2833 103° East 264 304 8,700 -842 Descending KA90
Mon 10:07:37 AM 42.4500 -71.2000 105° East 243 280 7,400 -1,400 Descending KA90
Mon 10:08:43 AM 42.4167 -71.1167 118° Southeast 235 270 5,900 -1,190 Descending KA90
Mon 10:09:43 AM 42.3667 -71.1167 180° South 241 277 4,900 -1,038 Descending KA90
Mon 10:10:27 AM 42.3328 -71.1567 221° Southwest 200 230 4,100 -1,038 Descending Boston Center
Mon 10:11:27 AM 42.2786 -71.1606 183° South 214 246 3,100 -700 Descending Boston Center
Mon 10:12:27 AM 42.2633 -71.1075 111° Southeast 158 182 2,700 -553 Descending Boston Center
Mon 10:12:43 AM 42.2667 -71.0833 79° East 174 200 2,400 -868 Descending KA90
Mon 10:13:43 AM 42.3000 -71.0500 36° Northeast 146 168 1,600 -857 Descending KA90
Mon 10:14:49 AM 42.3333 -71.0333 20° North 128 147 600 3,439 Descending KA90
Mon 10:16:27 AM 42.3744 -70.9842 41° Northeast 117 135 11,000 6,367 Climbing Boston Center

Login

Don't have an account? Register now (free) for customized features, flight alerts, and more!